Time;durP1;ratioP1;P1;durP2;ratioP2;P2;SDS_P1;SDS_P2;PMS_P1;PMS_P2;Temp;Humidity;BMP_temperature;BMP_pressure;BME280_temperature;BME280_humidity;BME280_pressure;Samples;Min_cycle;Max_cycle;Signal;HPM_P1;HPM_P2
2022/06/10 00:01:58;;;;;;;3.20;3.00;;;12.60;99.90;;;;;;5049986;28;20394;-87
2022/06/10 00:04:24;;;;;;;3.90;3.23;;;12.50;99.90;;;;;;5048046;28;20425;-87
2022/06/10 00:06:50;;;;;;;4.57;3.23;;;12.50;99.90;;;;;;5043697;28;20233;-87
2022/06/10 00:09:15;;;;;;;3.30;3.10;;;12.50;99.90;;;;;;5037079;28;20610;-87
2022/06/10 00:11:41;;;;;;;3.73;3.27;;;12.50;99.90;;;;;;5043465;28;20179;-87
2022/06/10 00:14:06;;;;;;;3.70;3.30;;;12.50;99.90;;;;;;5037352;28;20226;-87
2022/06/10 00:16:33;;;;;;;3.37;3.07;;;12.50;99.90;;;;;;5037259;28;20188;-88
2022/06/10 00:18:59;;;;;;;4.43;2.90;;;12.50;99.90;;;;;;5048995;28;20190;-87
2022/06/10 00:21:25;;;;;;;3.00;2.80;;;12.50;99.90;;;;;;5044743;28;20460;-86
2022/06/10 00:23:50;;;;;;;3.30;3.10;;;12.50;99.90;;;;;;5048756;28;21241;-86
2022/06/10 00:26:17;;;;;;;5.20;3.73;;;12.40;99.90;;;;;;5041127;28;21920;-86
2022/06/10 00:28:45;;;;;;;3.10;2.90;;;12.40;99.90;;;;;;5047502;28;20230;-87
2022/06/10 00:31:12;;;;;;;3.57;2.97;;;12.40;99.90;;;;;;5048742;28;20452;-87
2022/06/10 00:33:40;;;;;;;3.60;3.30;;;12.40;99.90;;;;;;5044643;28;21254;-87
2022/06/10 00:36:07;;;;;;;3.30;3.10;;;12.30;99.90;;;;;;5054191;28;20437;-87
2022/06/10 00:38:33;;;;;;;3.37;3.07;;;12.30;99.90;;;;;;5032968;28;20450;-87
2022/06/10 00:40:59;;;;;;;6.50;4.27;;;12.20;99.90;;;;;;5043766;28;22179;-87
2022/06/10 00:43:28;;;;;;;4.77;3.47;;;12.20;99.90;;;;;;5056274;28;20445;-87
2022/06/10 00:45:59;;;;;;;3.73;3.43;;;12.20;99.90;;;;;;5047916;28;20519;-87
2022/06/10 00:48:29;;;;;;;5.63;3.10;;;12.20;99.90;;;;;;5038442;28;20448;-87
2022/06/10 00:50:56;;;;;;;3.87;3.37;;;12.20;99.90;;;;;;5042597;28;20437;-87
2022/06/10 00:53:26;;;;;;;3.90;3.50;;;12.10;99.90;;;;;;5049306;28;20501;-87
2022/06/10 00:55:54;;;;;;;3.30;3.00;;;12.10;99.90;;;;;;5044722;28;20535;-87
2022/06/10 00:58:40;;;;;;;3.97;3.60;;;12.10;99.90;;;;;;5038376;28;20472;-87
2022/06/10 01:01:06;;;;;;;4.80;2.83;;;12.00;99.90;;;;;;5039081;28;20502;-88
2022/06/10 01:03:35;;;;;;;4.10;3.07;;;12.00;99.90;;;;;;5043356;28;20441;-87
2022/06/10 01:06:01;;;;;;;3.43;2.97;;;11.90;99.90;;;;;;5041593;28;20635;-87
2022/06/10 01:08:27;;;;;;;3.07;2.77;;;11.80;99.90;;;;;;5036194;28;20437;-86
2022/06/10 01:11:25;;;;;;;4.40;2.97;;;11.80;99.90;;;;;;5053729;28;20317;-87
2022/06/10 01:14:00;;;;;;;2.93;2.70;;;11.70;99.90;;;;;;5045369;28;20601;-88
2022/06/10 01:16:43;;;;;;;3.70;2.90;;;11.70;99.90;;;;;;5057509;28;20836;-87
2022/06/10 01:19:44;;;;;;;6.13;3.60;;;11.70;99.90;;;;;;5047534;28;20457;-87
2022/06/10 01:22:34;;;;;;;3.03;2.83;;;11.70;99.90;;;;;;5047001;28;21550;-87
2022/06/10 01:25:14;;;;;;;6.83;3.50;;;11.60;99.90;;;;;;5046489;28;20862;-87
2022/06/10 01:27:49;;;;;;;3.50;3.20;;;11.50;99.90;;;;;;5042761;28;20488;-87
2022/06/10 01:31:01;;;;;;;3.57;3.30;;;11.50;99.90;;;;;;5044524;28;20984;-87
2022/06/10 01:33:53;;;;;;;3.80;3.20;;;11.40;99.90;;;;;;5044795;28;21672;-87
2022/06/10 01:36:28;;;;;;;5.53;2.93;;;11.40;99.90;;;;;;5039879;28;20600;-87
2022/06/10 01:39:05;;;;;;;3.20;3.00;;;11.40;99.90;;;;;;5027870;28;20447;-87
2022/06/10 01:41:53;;;;;;;3.37;3.13;;;11.40;99.90;;;;;;5045427;28;20842;-87
2022/06/10 01:44:37;;;;;;;3.43;3.13;;;11.40;99.90;;;;;;5042863;28;20809;-87
2022/06/10 01:47:44;;;;;;;3.47;3.17;;;11.40;99.90;;;;;;5040316;28;20446;-86
2022/06/10 01:50:15;;;;;;;4.87;3.50;;;11.30;99.90;;;;;;5026043;28;20873;-87
2022/06/10 01:52:50;;;;;;;5.03;3.30;;;11.30;99.90;;;;;;5041094;28;20483;-86
2022/06/10 01:55:37;;;;;;;3.87;3.57;;;11.20;99.90;;;;;;5032908;28;20440;-87
2022/06/10 01:58:06;;;;;;;3.80;3.33;;;11.20;99.90;;;;;;5041273;28;20762;-87
2022/06/10 02:00:35;;;;;;;4.97;3.70;;;11.20;99.90;;;;;;5053676;28;20441;-87
2022/06/10 02:03:16;;;;;;;3.97;3.67;;;11.20;99.90;;;;;;5032472;28;20468;-87
2022/06/10 02:05:49;;;;;;;5.00;3.60;;;11.30;99.90;;;;;;5050489;28;20798;-87
2022/06/10 02:08:18;;;;;;;4.10;3.67;;;11.20;99.90;;;;;;5044021;28;20480;-87
2022/06/10 02:10:58;;;;;;;3.77;3.47;;;11.30;99.90;;;;;;5058275;28;20453;-86
2022/06/10 02:13:30;;;;;;;3.90;3.60;;;11.30;99.90;;;;;;5038799;28;20514;-87
2022/06/10 02:16:00;;;;;;;4.90;4.27;;;11.20;99.90;;;;;;5051182;28;20520;-87
2022/06/10 02:18:38;;;;;;;4.57;3.73;;;11.20;99.90;;;;;;5035505;28;20866;-87
2022/06/10 02:21:11;;;;;;;4.27;3.50;;;11.20;99.90;;;;;;5040209;28;20440;-87
2022/06/10 02:23:43;;;;;;;4.47;4.00;;;11.10;99.90;;;;;;5038549;28;20441;-87
2022/06/10 02:26:10;;;;;;;5.37;4.00;;;11.20;99.90;;;;;;5041445;28;20513;-86
2022/06/10 02:28:48;;;;;;;3.90;3.60;;;11.20;99.90;;;;;;5035056;28;20445;-86
2022/06/10 02:31:28;;;;;;;5.20;3.60;;;11.20;99.90;;;;;;5045406;28;20710;-87
2022/06/10 02:33:54;;;;;;;4.27;3.50;;;11.10;99.90;;;;;;5032855;28;20489;-86
2022/06/10 02:36:19;;;;;;;4.27;3.87;;;11.10;99.90;;;;;;5034103;28;21473;-87
2022/06/10 02:39:06;;;;;;;4.37;3.97;;;11.10;99.90;;;;;;5042120;28;20549;-87
2022/06/10 02:41:55;;;;;;;4.00;3.60;;;11.00;99.90;;;;;;5041142;28;20183;-87
2022/06/10 02:44:30;;;;;;;3.97;3.67;;;11.00;99.90;;;;;;5038226;28;20441;-87
2022/06/10 02:47:18;;;;;;;5.00;4.13;;;11.00;99.90;;;;;;5038776;28;20467;-87
2022/06/10 02:49:44;;;;;;;4.67;3.93;;;10.90;99.90;;;;;;5033863;28;21108;-87
2022/06/10 02:52:13;;;;;;;4.70;4.20;;;10.90;99.90;;;;;;5040671;28;20579;-87
2022/06/10 02:54:40;;;;;;;7.10;3.90;;;10.90;99.90;;;;;;5039229;28;20191;-87
2022/06/10 02:57:18;;;;;;;6.70;4.40;;;10.90;99.90;;;;;;5030173;28;20441;-87
2022/06/10 03:03:04;;;;;;;6.47;3.90;;;10.90;99.90;;;;;;5043119;28;21233;-87
2022/06/10 03:05:37;;;;;;;3.90;3.60;;;10.80;99.90;;;;;;5044733;28;20442;-87
2022/06/10 03:08:19;;;;;;;5.20;3.87;;;10.90;99.90;;;;;;5056191;28;20448;-88
2022/06/10 03:11:20;;;;;;;5.70;3.93;;;10.90;99.90;;;;;;5037245;28;20494;-88
2022/06/10 03:14:21;;;;;;;5.40;3.87;;;10.90;99.90;;;;;;5036310;28;21108;-87
2022/06/10 03:17:06;;;;;;;6.03;3.70;;;10.90;99.90;;;;;;5022137;28;21118;-87
2022/06/10 03:19:50;;;;;;;4.67;3.80;;;10.90;99.90;;;;;;5033338;28;20453;-86
2022/06/10 03:22:34;;;;;;;4.83;3.50;;;10.90;99.90;;;;;;5038063;28;20890;-86
2022/06/10 03:25:28;;;;;;;4.30;3.97;;;10.80;99.90;;;;;;5039038;28;20437;-86
2022/06/10 03:28:14;;;;;;;3.93;3.63;;;10.80;99.90;;;;;;5054292;28;20449;-89
2022/06/10 03:30:48;;;;;;;4.40;4.00;;;10.80;99.90;;;;;;5045830;28;20958;-87
2022/06/10 03:33:23;;;;;;;4.63;4.23;;;10.80;99.90;;;;;;5042714;28;20477;-87
2022/06/10 03:35:50;;;;;;;4.43;3.93;;;10.80;99.90;;;;;;5055346;28;20436;-87
2022/06/10 03:38:17;;;;;;;4.57;3.93;;;10.80;99.90;;;;;;5038309;28;20471;-87
2022/06/10 03:40:50;;;;;;;4.40;4.00;;;10.80;99.90;;;;;;5054408;28;21007;-87
2022/06/10 03:43:16;;;;;;;4.90;3.80;;;10.80;99.90;;;;;;5037298;28;20445;-88
2022/06/10 03:45:45;;;;;;;5.13;4.33;;;10.80;99.90;;;;;;5042402;28;20443;-87
2022/06/10 03:48:15;;;;;;;5.97;4.00;;;10.80;99.90;;;;;;5056557;28;20269;-87
2022/06/10 03:50:41;;;;;;;6.17;3.73;;;10.90;99.90;;;;;;5031555;28;20437;-87
2022/06/10 03:53:12;;;;;;;4.07;3.77;;;10.90;99.90;;;;;;5045162;28;20505;-86
2022/06/10 03:55:38;;;;;;;4.57;4.17;;;10.90;99.90;;;;;;5032282;28;20531;-87
2022/06/10 03:58:03;;;;;;;4.60;4.00;;;10.90;99.90;;;;;;5042263;28;20442;-87
2022/06/10 04:00:29;;;;;;;4.17;3.77;;;10.90;99.90;;;;;;5031466;28;20274;-88
2022/06/10 04:02:55;;;;;;;5.57;4.00;;;11.00;99.90;;;;;;5040966;28;20183;-87
2022/06/10 04:05:20;;;;;;;4.43;3.90;;;11.00;99.90;;;;;;5029697;28;20179;-87
2022/06/10 04:07:46;;;;;;;3.73;3.43;;;11.00;99.90;;;;;;5033446;28;20269;-87
2022/06/10 04:10:19;;;;;;;6.90;4.10;;;11.00;99.90;;;;;;5030144;28;20179;-88
2022/06/10 04:12:45;;;;;;;4.60;4.20;;;11.10;99.90;;;;;;5039748;28;20302;-87
2022/06/10 04:15:14;;;;;;;4.50;3.67;;;11.10;99.90;;;;;;5039039;28;20449;-87
2022/06/10 04:17:42;;;;;;;5.10;4.60;;;11.00;99.90;;;;;;5032133;28;20445;-87
2022/06/10 04:20:11;;;;;;;4.50;3.70;;;11.00;99.90;;;;;;5042528;28;20433;-87
2022/06/10 04:22:37;;;;;;;4.50;3.90;;;10.90;99.90;;;;;;5038268;28;20523;-87
2022/06/10 04:25:03;;;;;;;6.83;4.57;;;10.90;99.90;;;;;;5041474;28;20444;-87
2022/06/10 04:27:29;;;;;;;4.97;4.40;;;11.00;99.90;;;;;;5038811;28;20954;-87
2022/06/10 04:29:54;;;;;;;4.53;4.03;;;10.90;99.90;;;;;;5035170;28;20797;-88
2022/06/10 04:32:20;;;;;;;4.23;3.83;;;11.00;99.90;;;;;;5039067;28;20835;-88
2022/06/10 04:34:46;;;;;;;6.80;4.23;;;11.00;99.90;;;;;;5033015;28;20199;-87
2022/06/10 04:37:12;;;;;;;4.97;4.57;;;11.00;99.90;;;;;;5034798;28;20214;-87
2022/06/10 04:39:38;;;;;;;4.40;3.97;;;11.00;99.90;;;;;;5034658;28;20467;-87
2022/06/10 04:42:04;;;;;;;4.13;3.83;;;11.00;99.90;;;;;;5037134;28;20429;-87
2022/06/10 04:44:30;;;;;;;6.07;4.67;;;11.10;99.90;;;;;;5036253;28;21171;-88
2022/06/10 04:47:02;;;;;;;5.33;4.03;;;11.20;99.90;;;;;;5038554;28;20788;-87
2022/06/10 04:49:29;;;;;;;5.00;4.40;;;11.20;99.90;;;;;;5036344;28;20203;-87
2022/06/10 04:51:55;;;;;;;7.60;4.20;;;11.30;99.90;;;;;;5037709;28;21431;-87
2022/06/10 04:54:21;;;;;;;4.60;4.20;;;11.30;99.90;;;;;;5036561;28;20449;-87
2022/06/10 04:56:46;;;;;;;6.77;4.13;;;11.30;99.90;;;;;;5033570;28;20194;-87
2022/06/10 04:59:12;;;;;;;4.83;4.40;;;11.40;99.90;;;;;;5042153;28;20226;-87
2022/06/10 05:01:43;;;;;;;5.20;4.70;;;11.50;99.90;;;;;;5019794;28;20214;-87
2022/06/10 05:04:08;;;;;;;4.10;3.80;;;11.60;99.90;;;;;;5027723;28;20187;-88
2022/06/10 05:06:34;;;;;;;4.13;3.73;;;11.70;99.90;;;;;;5021736;28;20449;-87
2022/06/10 05:09:00;;;;;;;4.13;3.60;;;11.80;99.90;;;;;;5033147;28;20604;-87
2022/06/10 05:11:26;;;;;;;6.00;3.87;;;11.90;99.90;;;;;;5027219;28;20956;-88
2022/06/10 05:13:51;;;;;;;3.90;3.60;;;11.90;99.90;;;;;;5041461;28;20655;-88
2022/06/10 05:16:17;;;;;;;4.10;3.70;;;12.00;99.90;;;;;;5047510;28;20667;-88
2022/06/10 05:18:43;;;;;;;5.40;4.00;;;12.10;99.90;;;;;;5037390;28;20896;-89
2022/06/10 05:21:10;;;;;;;4.50;4.00;;;12.20;99.90;;;;;;5034911;28;20252;-88
2022/06/10 05:23:35;;;;;;;4.23;3.83;;;12.30;99.90;;;;;;5034989;28;20229;-88
2022/06/10 05:26:02;;;;;;;4.60;4.20;;;12.30;99.90;;;;;;5031827;28;20605;-88
2022/06/10 05:28:55;;;;;;;4.63;3.90;;;12.40;99.90;;;;;;5029674;28;20195;-89
2022/06/10 05:31:24;;;;;;;5.47;3.90;;;12.50;99.90;;;;;;5034046;28;20468;-87
2022/06/10 05:36:40;;;;;;;4.97;3.93;;;12.60;99.90;;;;;;5029079;28;20456;-89
2022/06/10 05:39:19;;;;;;;6.57;3.80;;;12.60;99.90;;;;;;5034576;28;20509;-88
2022/06/10 05:42:05;;;;;;;5.93;4.13;;;12.70;99.90;;;;;;5037977;28;20445;-87
2022/06/10 05:44:32;;;;;;;5.90;3.83;;;12.80;99.90;;;;;;5038876;28;20452;-90
2022/06/10 05:46:57;;;;;;;6.13;3.80;;;12.80;99.90;;;;;;5037927;28;20445;-87
2022/06/10 05:49:26;;;;;;;6.77;4.00;;;12.90;99.90;;;;;;5043214;28;20511;-88
2022/06/10 05:51:51;;;;;;;4.50;3.77;;;12.90;99.90;;;;;;5048228;28;21359;-88
2022/06/10 05:54:18;;;;;;;6.00;3.87;;;13.00;99.90;;;;;;5038694;28;20458;-88
2022/06/10 05:56:45;;;;;;;5.17;4.43;;;13.10;99.90;;;;;;5044242;28;20206;-87
2022/06/10 05:59:11;;;;;;;8.30;4.27;;;13.30;99.90;;;;;;5047383;28;20457;-87
2022/06/10 06:01:38;;;;;;;5.53;4.10;;;13.40;99.90;;;;;;5049615;28;20747;-87
2022/06/10 06:04:03;;;;;;;6.90;4.40;;;13.60;99.90;;;;;;5048070;28;20498;-88
2022/06/10 06:06:29;;;;;;;3.83;3.43;;;13.70;99.90;;;;;;5050244;28;20449;-87
2022/06/10 06:08:56;;;;;;;5.40;4.20;;;13.70;99.90;;;;;;5048673;28;20183;-88
2022/06/10 06:11:22;;;;;;;3.97;3.57;;;13.60;99.90;;;;;;5042111;28;20187;-87
2022/06/10 06:13:47;;;;;;;6.53;3.70;;;13.70;99.90;;;;;;5041491;28;20682;-87
2022/06/10 06:16:15;;;;;;;6.30;3.50;;;13.80;99.90;;;;;;5050032;28;20269;-87
2022/06/10 06:18:41;;;;;;;4.27;3.60;;;13.80;99.90;;;;;;5049090;28;20235;-86
2022/06/10 06:21:08;;;;;;;4.33;3.47;;;13.80;99.90;;;;;;5042969;28;20437;-88
2022/06/10 06:23:36;;;;;;;4.97;3.57;;;13.90;99.90;;;;;;5046006;28;21250;-87
2022/06/10 06:26:03;;;;;;;6.20;3.87;;;14.00;99.90;;;;;;5043743;28;20448;-87
2022/06/10 06:28:29;;;;;;;4.13;3.83;;;14.10;99.90;;;;;;5041658;28;20449;-87
2022/06/10 06:30:54;;;;;;;5.53;4.30;;;14.20;99.90;;;;;;5047215;28;21001;-87
2022/06/10 06:33:22;;;;;;;4.10;3.60;;;14.20;99.90;;;;;;5048049;28;20223;-87
2022/06/10 06:36:02;;;;;;;6.13;3.40;;;14.20;99.90;;;;;;5045216;28;20183;-87
2022/06/10 06:38:31;;;;;;;3.57;3.27;;;14.20;99.90;;;;;;5037624;28;20449;-88
2022/06/10 06:40:56;;;;;;;4.27;3.87;;;14.20;99.90;;;;;;5057905;28;20433;-88
2022/06/10 06:43:22;;;;;;;4.50;4.10;;;14.30;99.90;;;;;;5042877;28;20476;-87
2022/06/10 06:45:48;;;;;;;8.23;3.93;;;14.50;99.90;;;;;;5044902;28;20179;-88
2022/06/10 06:48:14;;;;;;;7.60;6.53;;;14.60;99.90;;;;;;5053187;28;20186;-88
2022/06/10 06:50:43;;;;;;;3.80;3.40;;;14.70;99.90;;;;;;5046132;28;20190;-87
2022/06/10 06:53:09;;;;;;;6.30;4.30;;;14.80;99.90;;;;;;5041403;28;20871;-88
2022/06/10 06:55:36;;;;;;;4.77;4.37;;;14.90;99.90;;;;;;5039737;28;20993;-87
2022/06/10 06:58:07;;;;;;;8.20;3.50;;;14.90;99.90;;;;;;5058131;28;20214;-87
2022/06/10 07:00:36;;;;;;;3.60;3.40;;;15.00;99.90;;;;;;5043247;28;20437;-87
2022/06/10 07:03:03;;;;;;;4.80;4.00;;;15.10;99.90;;;;;;5049121;28;20441;-88
2022/06/10 07:05:37;;;;;;;3.40;3.10;;;15.30;99.90;;;;;;5041717;28;20437;-87
2022/06/10 07:08:04;;;;;;;6.43;3.90;;;15.40;99.90;;;;;;5049507;28;20452;-88
2022/06/10 07:10:29;;;;;;;3.73;3.43;;;15.60;99.90;;;;;;5047405;28;20437;-88
2022/06/10 07:12:55;;;;;;;3.30;3.10;;;15.50;99.90;;;;;;5044342;28;20543;-88
2022/06/10 07:15:24;;;;;;;5.63;3.63;;;15.50;99.90;;;;;;5043333;28;20620;-88
2022/06/10 07:17:50;;;;;;;4.43;3.53;;;15.60;99.90;;;;;;5041537;28;20229;-88
2022/06/10 07:20:21;;;;;;;3.90;3.60;;;15.80;99.90;;;;;;5055667;28;20842;-88
2022/06/10 07:22:46;;;;;;;4.70;3.90;;;16.00;99.90;;;;;;5047976;28;20663;-88
2022/06/10 07:25:16;;;;;;;3.73;3.30;;;16.20;99.90;;;;;;5044120;28;20432;-87
2022/06/10 07:27:43;;;;;;;3.63;3.20;;;16.30;99.90;;;;;;5048899;28;20175;-88
2022/06/10 07:30:10;;;;;;;3.50;2.90;;;16.50;99.90;;;;;;5048924;28;20448;-88
2022/06/10 07:32:36;;;;;;;5.60;3.27;;;16.60;99.90;;;;;;5041104;28;20460;-88
2022/06/10 07:35:02;;;;;;;3.17;2.87;;;16.80;99.90;;;;;;5046434;28;20488;-88
2022/06/10 07:37:28;;;;;;;3.43;3.00;;;16.90;99.90;;;;;;5043170;28;20171;-89
2022/06/10 07:39:53;;;;;;;3.20;3.00;;;17.00;99.90;;;;;;5045506;28;21029;-88
2022/06/10 07:42:25;;;;;;;8.53;3.00;;;17.00;99.90;;;;;;5044168;28;20269;-88
2022/06/10 07:44:50;;;;;;;4.50;2.97;;;17.00;99.90;;;;;;5043406;28;20190;-88
2022/06/10 07:47:16;;;;;;;4.40;2.97;;;17.20;99.90;;;;;;5041703;28;20445;-88
2022/06/10 07:49:42;;;;;;;4.53;3.17;;;17.40;99.90;;;;;;5045138;28;20188;-88
2022/06/10 07:52:07;;;;;;;4.53;3.37;;;17.50;99.90;;;;;;5046855;28;20191;-88
2022/06/10 07:54:34;;;;;;;3.73;3.00;;;17.60;99.90;;;;;;5046264;28;20179;-87
2022/06/10 07:57:01;;;;;;;4.00;3.20;;;17.70;99.90;;;;;;5048091;28;20182;-87
2022/06/10 07:59:27;;;;;;;7.40;3.03;;;17.70;99.90;;;;;;5043870;28;20531;-88
2022/06/10 08:01:52;;;;;;;4.63;2.90;;;17.80;99.90;;;;;;5046110;28;21326;-88
2022/06/10 08:04:18;;;;;;;4.27;2.40;;;18.00;99.90;;;;;;5049304;28;20523;-88
2022/06/10 08:06:46;;;;;;;4.40;2.63;;;18.10;99.90;;;;;;5050223;28;20269;-88
2022/06/10 08:09:13;;;;;;;4.27;3.33;;;18.20;99.90;;;;;;5049346;28;20188;-88
2022/06/10 08:11:39;;;;;;;2.70;2.27;;;18.30;99.90;;;;;;5046289;28;20434;-88
2022/06/10 08:14:06;;;;;;;3.90;2.60;;;18.40;99.90;;;;;;5050477;28;20484;-88
2022/06/10 08:16:34;;;;;;;4.53;2.80;;;18.60;99.90;;;;;;5039363;28;21192;-88
2022/06/10 08:19:00;;;;;;;6.70;2.67;;;18.60;99.90;;;;;;5050236;28;20487;-86
2022/06/10 08:24:10;;;;;;;4.90;2.60;;;18.90;99.90;;;;;;5051318;28;20494;-86
2022/06/10 08:26:36;;;;;;;4.03;2.30;;;19.20;99.90;;;;;;5047815;28;20436;-86
2022/06/10 08:29:03;;;;;;;2.97;2.20;;;19.30;99.90;;;;;;5046697;28;20199;-86
2022/06/10 08:31:29;;;;;;;29.90;12.73;;;19.30;99.50;;;;;;5048861;28;20187;-86
2022/06/10 08:33:54;;;;;;;4.27;2.77;;;19.30;99.00;;;;;;5047249;28;20916;-86
2022/06/10 08:36:20;;;;;;;4.10;2.87;;;19.20;99.80;;;;;;5050509;28;20444;-86
2022/06/10 08:38:45;;;;;;;5.23;3.03;;;19.20;99.90;;;;;;5051611;28;20196;-86
2022/06/10 08:41:19;;;;;;;4.50;2.67;;;19.20;99.90;;;;;;5048773;28;20199;-86
2022/06/10 08:44:09;;;;;;;6.57;2.00;;;19.30;99.90;;;;;;5047777;28;20188;-86
2022/06/10 08:46:53;;;;;;;3.30;2.60;;;19.40;99.90;;;;;;5045891;28;20445;-86
2022/06/10 08:49:46;;;;;;;4.43;2.50;;;19.60;99.90;;;;;;5058562;28;20539;-86
2022/06/10 08:52:30;;;;;;;4.63;2.07;;;19.70;99.90;;;;;;5054623;28;20449;-86
2022/06/10 08:55:29;;;;;;;5.40;2.50;;;19.70;98.70;;;;;;5047360;28;20971;-86
2022/06/10 08:57:59;;;;;;;43.37;16.40;;;19.90;99.70;;;;;;5041376;28;20434;-86
2022/06/10 09:00:29;;;;;;;19.60;11.07;;;20.10;99.00;;;;;;5049062;28;20438;-87
2022/06/10 09:03:40;;;;;;;6.57;2.60;;;20.10;99.90;;;;;;5044048;28;20731;-87
2022/06/10 09:06:23;;;;;;;6.50;2.60;;;19.90;98.70;;;;;;5051173;28;20443;-87
2022/06/10 09:08:53;;;;;;;3.53;2.67;;;19.80;98.90;;;;;;5054019;28;21067;-86
2022/06/10 09:11:32;;;;;;;3.87;2.60;;;19.80;99.10;;;;;;5045914;28;20433;-87
2022/06/10 09:14:06;;;;;;;2.57;2.37;;;19.80;99.90;;;;;;5050531;28;20472;-87
2022/06/10 09:16:49;;;;;;;4.33;2.70;;;19.90;99.90;;;;;;5045599;28;20480;-87
2022/06/10 09:19:46;;;;;;;2.77;2.57;;;19.90;98.70;;;;;;5046254;28;20464;-87
2022/06/10 09:22:38;;;;;;;4.17;3.20;;;19.80;99.60;;;;;;5053094;28;20444;-87
2022/06/10 09:25:19;;;;;;;2.73;2.33;;;19.90;98.30;;;;;;5048121;28;21078;-87
2022/06/10 09:27:50;;;;;;;3.17;2.63;;;20.00;99.00;;;;;;5045336;28;21024;-87
2022/06/10 09:30:21;;;;;;;4.83;2.57;;;20.50;99.90;;;;;;5043057;28;20460;-87
2022/06/10 09:32:59;;;;;;;2.80;2.50;;;20.80;98.30;;;;;;5042922;28;20466;-87
2022/06/10 09:35:51;;;;;;;6.03;3.77;;;20.70;97.50;;;;;;5046808;28;20471;-87
2022/06/10 09:38:28;;;;;;;6.60;2.70;;;21.00;99.50;;;;;;5051467;28;20504;-87
2022/06/10 09:41:15;;;;;;;5.43;3.30;;;20.90;97.40;;;;;;5050772;28;20535;-87
2022/06/10 09:43:53;;;;;;;9.50;4.57;;;20.80;99.10;;;;;;5045728;28;21688;-87
2022/06/10 09:46:39;;;;;;;8.00;4.23;;;20.40;99.70;;;;;;5052585;28;21166;-87
2022/06/10 09:49:34;;;;;;;3.87;2.87;;;20.20;98.90;;;;;;5048696;28;20798;-87
2022/06/10 09:52:21;;;;;;;6.00;2.90;;;20.00;99.90;;;;;;5046401;28;20449;-87
2022/06/10 09:55:16;;;;;;;3.70;2.50;;;20.20;99.90;;;;;;5049190;28;20445;-87
2022/06/10 09:58:12;;;;;;;4.60;2.67;;;20.30;99.00;;;;;;5038446;28;20433;-87
2022/06/10 10:00:55;;;;;;;4.10;2.47;;;20.40;98.50;;;;;;5044008;28;21833;-87
2022/06/10 10:03:42;;;;;;;3.70;2.90;;;20.30;97.30;;;;;;5046109;28;20496;-87
2022/06/10 10:06:16;;;;;;;6.13;2.97;;;20.70;98.60;;;;;;5041358;28;20453;-87
2022/06/10 10:09:12;;;;;;;5.57;2.30;;;21.00;97.40;;;;;;5051268;28;20433;-87
2022/06/10 10:12:08;;;;;;;3.90;2.47;;;21.20;96.00;;;;;;5039004;28;21442;-87
2022/06/10 10:14:56;;;;;;;3.73;2.77;;;21.10;96.30;;;;;;5047728;28;20445;-87
2022/06/10 10:17:49;;;;;;;7.60;2.80;;;21.30;97.50;;;;;;5043672;28;20448;-87
2022/06/10 10:20:42;;;;;;;3.93;2.33;;;21.30;95.90;;;;;;5045651;28;20434;-87
2022/06/10 10:23:22;;;;;;;2.00;1.83;;;21.00;95.90;;;;;;5046275;28;20450;-87
2022/06/10 10:25:48;;;;;;;3.90;2.40;;;21.00;95.80;;;;;;5044888;28;20839;-87
2022/06/10 10:28:29;;;;;;;4.53;2.30;;;21.10;94.90;;;;;;5043788;28;21388;-86
2022/06/10 10:31:16;;;;;;;3.83;2.43;;;20.80;94.30;;;;;;5044359;28;20361;-86
2022/06/10 10:33:42;;;;;;;5.10;2.80;;;21.10;98.10;;;;;;5041131;28;21009;-87
2022/06/10 10:36:32;;;;;;;4.53;2.70;;;21.70;97.10;;;;;;5042970;28;20437;-87
2022/06/10 10:39:13;;;;;;;3.27;2.70;;;22.20;94.70;;;;;;5060782;28;20256;-87
2022/06/10 10:41:44;;;;;;;6.27;2.60;;;22.40;93.80;;;;;;5047013;28;20467;-87
2022/06/10 10:44:40;;;;;;;4.23;2.30;;;22.30;93.20;;;;;;5046025;28;20491;-87
2022/06/10 10:47:09;;;;;;;4.43;2.13;;;22.40;94.10;;;;;;5043659;28;20442;-87
2022/06/10 10:49:41;;;;;;;3.20;2.13;;;21.90;92.40;;;;;;5047433;28;20475;-87
2022/06/10 10:52:39;;;;;;;3.60;2.30;;;21.90;90.50;;;;;;5037351;28;20445;-87
2022/06/10 10:55:13;;;;;;;6.20;2.27;;;22.20;92.80;;;;;;5053272;28;20516;-87
2022/06/10 10:58:04;;;;;;;3.00;1.90;;;22.60;87.10;;;;;;5039890;28;20464;-87
2022/06/10 11:00:41;;;;;;;2.10;1.90;;;22.90;89.20;;;;;;5044324;28;20441;-87
2022/06/10 11:03:26;;;;;;;2.13;1.87;;;23.20;91.30;;;;;;5043463;28;20457;-87
2022/06/10 11:05:55;;;;;;;3.60;2.10;;;23.50;87.10;;;;;;5043971;28;20434;-87
2022/06/10 11:08:36;;;;;;;3.37;1.77;;;24.00;87.40;;;;;;5043929;28;20445;-87
2022/06/10 11:11:22;;;;;;;1.93;1.60;;;24.10;88.20;;;;;;5041534;28;20445;-86
2022/06/10 11:13:57;;;;;;;3.50;1.93;;;24.30;86.90;;;;;;5043706;28;20563;-87
2022/06/10 11:16:31;;;;;;;2.83;2.10;;;24.50;88.00;;;;;;5043197;28;20811;-87
2022/06/10 11:19:21;;;;;;;4.40;2.30;;;24.20;88.50;;;;;;5043361;28;20432;-87
2022/06/10 11:21:50;;;;;;;2.83;1.80;;;24.00;88.80;;;;;;5038724;28;20550;-87
2022/06/10 11:24:18;;;;;;;3.50;1.70;;;24.00;88.80;;;;;;5047062;28;20537;-87
2022/06/10 11:26:49;;;;;;;2.50;1.90;;;23.70;80.20;;;;;;5050973;28;20446;-87
2022/06/10 11:29:15;;;;;;;2.73;1.60;;;23.50;83.60;;;;;;5052157;28;20442;-86
2022/06/10 11:31:50;;;;;;;3.70;1.77;;;23.60;85.80;;;;;;5052079;28;20436;-87
2022/06/10 11:34:32;;;;;;;2.93;2.17;;;24.20;86.80;;;;;;5055708;28;20236;-87
2022/06/10 11:36:58;;;;;;;5.30;2.40;;;24.60;89.00;;;;;;5045430;28;20432;-87
2022/06/10 11:39:33;;;;;;;2.33;1.63;;;24.90;79.60;;;;;;5049589;28;20522;-87
2022/06/10 11:42:11;;;;;;;2.63;2.10;;;25.00;77.50;;;;;;5066065;28;20952;-87
2022/06/10 11:44:57;;;;;;;2.03;1.83;;;24.60;82.40;;;;;;5047927;28;20434;-87
2022/06/10 11:47:38;;;;;;;2.20;1.97;;;24.60;81.70;;;;;;5052457;28;20530;-87
2022/06/10 11:50:12;;;;;;;3.70;1.90;;;23.70;81.30;;;;;;5046302;28;22243;-87
2022/06/10 11:53:00;;;;;;;1.60;1.50;;;23.60;84.80;;;;;;5045667;28;20811;-87
2022/06/10 11:55:30;;;;;;;4.00;2.13;;;24.00;83.10;;;;;;5049449;28;20438;-87
2022/06/10 12:01:14;;;;;;;2.60;1.77;;;25.00;83.10;;;;;;5045733;28;21020;-87
2022/06/10 12:03:50;;;;;;;2.07;1.50;;;25.00;87.30;;;;;;5051029;28;20449;-87
2022/06/10 12:06:24;;;;;;;3.97;1.67;;;25.20;80.40;;;;;;5046429;28;20875;-87
2022/06/10 12:09:19;;;;;;;1.93;1.70;;;25.20;76.60;;;;;;5066226;28;20433;-87
2022/06/10 12:11:52;;;;;;;4.23;2.20;;;25.20;74.80;;;;;;5051916;28;20449;-87
2022/06/10 12:14:34;;;;;;;3.10;1.70;;;24.70;81.00;;;;;;5045928;28;20481;-87
2022/06/10 12:17:22;;;;;;;1.60;1.30;;;25.00;74.50;;;;;;5046687;28;20450;-87
2022/06/10 12:20:10;;;;;;;4.63;1.70;;;25.20;81.70;;;;;;5046936;28;20448;-88
2022/06/10 12:22:36;;;;;;;2.73;1.63;;;25.20;74.80;;;;;;5041524;28;20969;-87
2022/06/10 12:25:32;;;;;;;2.73;1.90;;;25.20;74.90;;;;;;5067314;28;20785;-87
2022/06/10 12:28:23;;;;;;;2.60;1.97;;;25.40;82.50;;;;;;5055144;28;20445;-86
2022/06/10 12:31:00;;;;;;;2.40;1.60;;;25.60;82.20;;;;;;5044860;28;20446;-87
2022/06/10 12:36:31;;;;;;;5.43;1.70;;;25.30;73.50;;;;;;5045798;28;20455;-87
2022/06/10 12:38:59;;;;;;;1.93;1.50;;;25.40;77.50;;;;;;5068158;28;20441;-87
2022/06/10 12:41:42;;;;;;;1.60;1.50;;;25.60;74.30;;;;;;5047443;28;20430;-87
2022/06/10 12:44:15;;;;;;;1.90;1.67;;;25.80;75.10;;;;;;5049844;28;20437;-87
2022/06/10 12:46:53;;;;;;;1.60;1.50;;;25.80;72.70;;;;;;5049127;28;21030;-87
2022/06/10 12:49:24;;;;;;;1.63;1.20;;;25.90;70.40;;;;;;5048409;28;20456;-87
2022/06/10 12:52:19;;;;;;;2.40;1.13;;;25.90;70.40;;;;;;5048199;28;20437;-87
2022/06/10 12:54:59;;;;;;;1.60;1.50;;;25.50;68.80;;;;;;5045245;28;21078;-87
2022/06/10 12:57:34;;;;;;;1.50;1.33;;;25.90;77.20;;;;;;5049718;28;20448;-87
2022/06/10 13:00:18;;;;;;;1.93;1.30;;;26.00;75.00;;;;;;5059695;28;20429;-87
2022/06/10 13:02:45;;;;;;;2.70;1.57;;;25.80;71.10;;;;;;5058679;28;20437;-87
2022/06/10 13:05:20;;;;;;;2.47;1.40;;;25.40;63.20;;;;;;5045609;28;20489;-87
2022/06/10 13:07:47;;;;;;;2.50;1.50;;;24.80;71.00;;;;;;5046746;28;20428;-87
2022/06/10 13:10:28;;;;;;;1.90;1.30;;;25.20;71.30;;;;;;5044312;28;20476;-87
2022/06/10 13:13:08;;;;;;;2.60;1.47;;;25.60;78.10;;;;;;5047496;28;20497;-87
2022/06/10 13:15:49;;;;;;;1.50;1.20;;;26.00;77.50;;;;;;5077179;28;20441;-87
2022/06/10 13:18:17;;;;;;;4.03;1.40;;;26.40;72.10;;;;;;5061532;28;20437;-86
2022/06/10 13:20:46;;;;;;;9.63;2.00;;;25.90;65.20;;;;;;5047362;28;20441;-87
2022/06/10 13:23:14;;;;;;;1.60;1.47;;;25.90;80.00;;;;;;5059212;28;20426;-87
2022/06/10 13:25:43;;;;;;;3.30;1.67;;;26.60;72.50;;;;;;5044846;28;20454;-86
2022/06/10 13:28:24;;;;;;;2.50;1.53;;;26.90;73.30;;;;;;5047598;28;20473;-88
2022/06/10 13:30:51;;;;;;;2.80;1.37;;;26.90;70.70;;;;;;5054842;28;20476;-87
2022/06/10 13:33:18;;;;;;;2.70;1.80;;;27.50;63.20;;;;;;5046796;28;20480;-87
2022/06/10 13:35:43;;;;;;;2.20;1.80;;;27.90;68.00;;;;;;5039717;28;20434;-87